Time;durP1;ratioP1;P1;durP2;ratioP2;P2;SDS_P1;SDS_P2;PMS_P1;PMS_P2;Temp;Humidity;BMP_temperature;BMP_pressure;BME280_temperature;BME280_humidity;BME280_pressure;Samples;Min_cycle;Max_cycle;Signal;HPM_P1;HPM_P2
2023/03/17 00:01:53;;;;;;;0.50;0.50;;;2.20;99.90;;;;;;5076208;28;20180;-76
2023/03/17 00:04:20;;;;;;;0.60;0.60;;;2.20;99.90;;;;;;5057300;28;20224;-75
2023/03/17 00:06:49;;;;;;;0.60;0.60;;;2.20;99.90;;;;;;5054610;28;20700;-77
2023/03/17 00:09:20;;;;;;;0.60;0.60;;;2.20;99.90;;;;;;5054892;28;20190;-76
2023/03/17 00:12:00;;;;;;;0.65;0.65;;;2.20;99.90;;;;;;5054832;28;20649;-76
2023/03/17 00:14:35;;;;;;;0.57;0.57;;;2.20;99.90;;;;;;5054177;28;20232;-77
2023/03/17 00:17:03;;;;;;;0.60;0.60;;;2.20;99.90;;;;;;5054559;28;20193;-76
2023/03/17 00:19:35;;;;;;;0.60;0.60;;;2.20;99.90;;;;;;5055437;28;20198;-76
2023/03/17 00:22:15;;;;;;;0.60;0.60;;;2.20;99.90;;;;;;5054735;28;20661;-76
2023/03/17 00:24:42;;;;;;;0.60;0.60;;;2.20;99.90;;;;;;5050529;28;20241;-76
2023/03/17 00:27:19;;;;;;;0.82;0.82;;;2.10;99.90;;;;;;5035511;28;20578;-77
2023/03/17 00:29:48;;;;;;;6.13;1.55;;;2.10;99.90;;;;;;5035142;28;20194;-77
2023/03/17 00:32:21;;;;;;;0.85;0.85;;;2.10;99.90;;;;;;5033829;28;20206;-76
2023/03/17 00:34:50;;;;;;;0.60;0.60;;;2.20;99.90;;;;;;5034359;28;20289;-76
2023/03/17 00:37:28;;;;;;;0.60;0.60;;;2.20;99.90;;;;;;5035664;28;20191;-76
2023/03/17 00:40:05;;;;;;;0.60;0.60;;;2.20;99.90;;;;;;5034327;28;20275;-76
2023/03/17 00:42:31;;;;;;;0.70;0.70;;;2.20;99.90;;;;;;5035800;28;20197;-76
2023/03/17 00:45:00;;;;;;;0.60;0.60;;;2.10;99.90;;;;;;5035229;28;20221;-75
2023/03/17 00:47:35;;;;;;;0.60;0.60;;;2.10;99.90;;;;;;5045453;28;20197;-76
2023/03/17 00:50:00;;;;;;;0.70;0.70;;;2.10;99.90;;;;;;5055018;28;20591;-76
2023/03/17 00:52:32;;;;;;;0.63;0.63;;;2.10;99.90;;;;;;5055064;28;20213;-75
2023/03/17 00:55:02;;;;;;;0.57;0.57;;;2.10;99.90;;;;;;5055050;28;20193;-75
2023/03/17 00:57:34;;;;;;;0.50;0.50;;;2.10;99.90;;;;;;5053563;28;20205;-76
2023/03/17 01:00:00;;;;;;;0.60;0.60;;;2.10;99.30;;;;;;5054445;28;20292;-76
2023/03/17 01:02:26;;;;;;;0.60;0.60;;;2.20;99.90;;;;;;5055008;28;20190;-75
2023/03/17 01:04:52;;;;;;;0.68;0.68;;;2.10;99.90;;;;;;5054480;28;20205;-76
2023/03/17 01:07:29;;;;;;;0.70;0.70;;;2.10;99.90;;;;;;5070623;28;20224;-75
2023/03/17 01:09:58;;;;;;;0.70;0.70;;;2.20;99.10;;;;;;5055572;28;20631;-76
2023/03/17 01:12:25;;;;;;;0.63;0.63;;;2.20;99.40;;;;;;5074689;28;20562;-76
2023/03/17 01:14:51;;;;;;;0.70;0.70;;;2.10;99.90;;;;;;5056721;28;20300;-75
2023/03/17 01:17:20;;;;;;;0.60;0.60;;;2.20;98.80;;;;;;5056666;28;20197;-76
2023/03/17 01:19:49;;;;;;;1.45;0.88;;;2.30;98.80;;;;;;5074794;28;20596;-76
2023/03/17 01:22:15;;;;;;;0.63;0.63;;;2.20;99.40;;;;;;5074844;28;20188;-76
2023/03/17 01:25:10;;;;;;;0.60;0.60;;;2.20;99.60;;;;;;5052865;28;20212;-76
2023/03/17 01:27:49;;;;;;;0.70;0.70;;;2.20;99.30;;;;;;4992445;28;20351;-76
2023/03/17 01:30:18;;;;;;;0.45;0.45;;;2.20;99.70;;;;;;4993320;28;20334;-75
2023/03/17 01:32:50;;;;;;;0.70;0.70;;;2.10;99.90;;;;;;4996400;28;20583;-76
2023/03/17 01:35:16;;;;;;;0.60;0.60;;;2.10;99.90;;;;;;4996445;28;20229;-75
2023/03/17 01:37:45;;;;;;;0.60;0.60;;;2.10;99.90;;;;;;4996085;28;20207;-76
2023/03/17 01:40:19;;;;;;;0.60;0.60;;;2.10;99.90;;;;;;5012188;28;20322;-76
2023/03/17 01:42:53;;;;;;;0.70;0.70;;;2.10;99.90;;;;;;5012296;28;20393;-76
2023/03/17 01:45:59;;;;;;;0.60;0.60;;;2.10;99.90;;;;;;4992602;28;20233;-76
2023/03/17 01:48:38;;;;;;;0.70;0.70;;;2.00;99.90;;;;;;4995863;28;20249;-76
2023/03/17 01:51:06;;;;;;;0.65;0.65;;;2.00;99.90;;;;;;4995438;28;20759;-75
2023/03/17 01:53:37;;;;;;;0.80;0.80;;;2.00;99.90;;;;;;4995677;28;20199;-75
2023/03/17 01:56:10;;;;;;;1.13;1.13;;;2.00;99.90;;;;;;4995833;28;20217;-76
2023/03/17 01:58:39;;;;;;;0.70;0.70;;;2.00;99.90;;;;;;5011936;28;20214;-76
2023/03/17 02:01:09;;;;;;;0.63;0.63;;;2.10;99.90;;;;;;5012659;28;20282;-74
2023/03/17 02:03:35;;;;;;;0.80;0.80;;;2.00;99.90;;;;;;5045220;22;20695;-72
2023/03/17 02:06:01;;;;;;;0.55;0.55;;;2.00;99.90;;;;;;5053191;28;20216;-72
2023/03/17 02:08:27;;;;;;;0.60;0.60;;;2.00;99.90;;;;;;5053011;28;20186;-72
2023/03/17 02:10:55;;;;;;;0.60;0.60;;;2.00;99.90;;;;;;5053161;28;20190;-72
2023/03/17 02:13:21;;;;;;;0.52;0.52;;;1.90;99.90;;;;;;5053108;28;20216;-71
2023/03/17 02:15:50;;;;;;;0.70;0.70;;;1.90;99.90;;;;;;5051819;28;20204;-72
2023/03/17 02:18:18;;;;;;;0.70;0.70;;;2.00;99.90;;;;;;5051526;28;20197;-71
2023/03/17 02:20:47;;;;;;;0.60;0.60;;;2.00;99.90;;;;;;5051630;28;20229;-72
2023/03/17 02:23:23;;;;;;;0.60;0.60;;;2.00;99.90;;;;;;5052821;28;20190;-72
2023/03/17 02:25:50;;;;;;;0.70;0.70;;;2.00;99.90;;;;;;5053001;28;20216;-71
2023/03/17 02:28:20;;;;;;;0.70;0.70;;;2.00;99.90;;;;;;5052964;28;20216;-71
2023/03/17 02:30:46;;;;;;;0.60;0.60;;;2.00;99.90;;;;;;5052977;28;20189;-72
2023/03/17 02:33:12;;;;;;;0.73;0.73;;;2.00;99.90;;;;;;5051462;28;20565;-72
2023/03/17 02:35:39;;;;;;;0.60;0.60;;;2.00;99.90;;;;;;5052661;28;20193;-72
2023/03/17 02:38:05;;;;;;;0.60;0.60;;;1.90;99.90;;;;;;5052872;28;20280;-72
2023/03/17 02:40:31;;;;;;;0.60;0.60;;;1.90;99.90;;;;;;5037218;28;20707;-72
2023/03/17 02:42:58;;;;;;;0.55;0.55;;;1.90;99.90;;;;;;5033438;28;20667;-72
2023/03/17 02:45:24;;;;;;;0.45;0.45;;;1.80;99.90;;;;;;5031951;28;20202;-72
2023/03/17 02:47:50;;;;;;;0.50;0.50;;;1.80;99.90;;;;;;5033321;28;20198;-72
2023/03/17 02:50:24;;;;;;;0.70;0.70;;;1.80;99.90;;;;;;5036279;28;20289;-72
2023/03/17 02:52:50;;;;;;;0.60;0.60;;;1.80;99.90;;;;;;5053065;28;20259;-72
2023/03/17 02:55:17;;;;;;;0.70;0.70;;;1.80;99.90;;;;;;5053031;28;20201;-72
2023/03/17 02:57:43;;;;;;;0.70;0.70;;;1.70;99.90;;;;;;5053104;28;20186;-72
2023/03/17 03:00:10;;;;;;;0.60;0.60;;;1.70;99.90;;;;;;5051920;28;20197;-71
2023/03/17 03:02:39;;;;;;;0.80;0.80;;;1.70;99.90;;;;;;5058299;28;20229;-72
2023/03/17 03:05:07;;;;;;;0.68;0.68;;;1.80;99.90;;;;;;5052455;28;20197;-71
2023/03/17 03:07:36;;;;;;;0.50;0.50;;;1.80;99.90;;;;;;5050581;28;20198;-71
2023/03/17 03:10:01;;;;;;;0.70;0.70;;;1.70;99.90;;;;;;5052899;28;20197;-72
2023/03/17 03:12:27;;;;;;;0.60;0.60;;;1.70;99.90;;;;;;5052917;28;20239;-72
2023/03/17 03:14:53;;;;;;;0.70;0.70;;;1.80;99.90;;;;;;5052940;28;20254;-72
2023/03/17 03:17:20;;;;;;;0.70;0.70;;;1.80;99.90;;;;;;5052771;28;20672;-72
2023/03/17 03:19:47;;;;;;;0.60;0.60;;;1.80;99.90;;;;;;5053123;28;20227;-72
2023/03/17 03:22:13;;;;;;;0.60;0.60;;;1.80;99.90;;;;;;5051714;28;20221;-72
2023/03/17 03:24:39;;;;;;;0.65;0.65;;;1.80;99.90;;;;;;5038453;28;20213;-72
2023/03/17 03:27:05;;;;;;;0.70;0.70;;;1.70;99.90;;;;;;5032965;28;20194;-72
2023/03/17 03:29:31;;;;;;;0.70;0.70;;;1.70;99.90;;;;;;5032820;28;20221;-71
2023/03/17 03:31:57;;;;;;;0.60;0.60;;;1.70;99.90;;;;;;5032922;28;20656;-72
2023/03/17 03:34:22;;;;;;;0.55;0.55;;;1.70;99.90;;;;;;5049705;28;20201;-72
2023/03/17 03:36:48;;;;;;;0.50;0.50;;;1.70;99.90;;;;;;5051650;28;20193;-72
2023/03/17 03:39:14;;;;;;;0.60;0.60;;;1.70;99.90;;;;;;5047976;28;20198;-71
2023/03/17 03:41:40;;;;;;;0.70;0.70;;;1.80;99.90;;;;;;5031431;28;20587;-72
2023/03/17 03:44:05;;;;;;;0.70;0.70;;;1.70;99.90;;;;;;5032486;28;20198;-72
2023/03/17 03:46:31;;;;;;;0.60;0.60;;;1.70;99.90;;;;;;5035142;28;20202;-72
2023/03/17 03:48:57;;;;;;;0.88;0.88;;;1.70;99.90;;;;;;5051328;28;20225;-72
2023/03/17 03:51:23;;;;;;;0.60;0.60;;;1.70;99.90;;;;;;5052891;28;20198;-72
2023/03/17 03:53:48;;;;;;;0.70;0.70;;;1.70;99.90;;;;;;5052628;28;20259;-72
2023/03/17 03:56:14;;;;;;;0.60;0.60;;;1.70;99.90;;;;;;5051955;28;20213;-72
2023/03/17 03:58:40;;;;;;;0.60;0.60;;;1.70;99.90;;;;;;5051006;28;20202;-71
2023/03/17 04:01:08;;;;;;;0.70;0.70;;;1.70;99.90;;;;;;5041959;28;20210;-72
2023/03/17 04:03:36;;;;;;;0.60;0.60;;;1.70;99.90;;;;;;5063801;28;20228;-71
2023/03/17 04:06:02;;;;;;;0.60;0.60;;;1.70;99.90;;;;;;5076358;28;20208;-71
2023/03/17 04:08:28;;;;;;;0.45;0.45;;;1.70;99.90;;;;;;5074745;28;20197;-71
2023/03/17 04:10:53;;;;;;;0.50;0.50;;;1.70;99.90;;;;;;5076162;28;20247;-72
2023/03/17 04:13:19;;;;;;;0.60;0.60;;;1.70;99.90;;;;;;5075961;28;20230;-73
2023/03/17 04:15:45;;;;;;;0.70;0.70;;;1.80;99.90;;;;;;5075161;28;20300;-72
2023/03/17 04:18:10;;;;;;;0.68;0.68;;;1.80;99.80;;;;;;5076430;28;20214;-72
2023/03/17 04:20:37;;;;;;;0.60;0.60;;;1.90;99.70;;;;;;5076063;28;20205;-72
2023/03/17 04:23:03;;;;;;;0.63;0.63;;;1.90;99.30;;;;;;5058657;28;20205;-72
2023/03/17 04:25:29;;;;;;;0.73;0.73;;;2.00;98.70;;;;;;5055788;28;20195;-71
2023/03/17 04:27:55;;;;;;;0.60;0.60;;;2.00;98.20;;;;;;5056103;28;20496;-72
2023/03/17 04:30:21;;;;;;;0.55;0.55;;;2.00;98.50;;;;;;5055920;28;20332;-71
2023/03/17 04:32:47;;;;;;;0.70;0.70;;;2.00;98.50;;;;;;5055820;28;20206;-71
2023/03/17 04:35:16;;;;;;;0.60;0.60;;;2.00;98.30;;;;;;5053737;28;20212;-72
2023/03/17 04:37:42;;;;;;;0.73;0.73;;;2.10;97.10;;;;;;5055462;28;20603;-71
2023/03/17 04:40:10;;;;;;;0.68;0.68;;;2.10;97.10;;;;;;5041889;28;20198;-71
2023/03/17 04:42:36;;;;;;;0.75;0.75;;;2.10;97.80;;;;;;5035503;28;20232;-71
2023/03/17 04:45:03;;;;;;;0.65;0.65;;;2.00;97.10;;;;;;5055242;28;20198;-71
2023/03/17 04:47:29;;;;;;;0.60;0.60;;;2.10;96.20;;;;;;5053841;28;20292;-71
2023/03/17 04:49:55;;;;;;;0.63;0.63;;;2.10;95.90;;;;;;5055376;28;20228;-71
2023/03/17 04:52:21;;;;;;;0.70;0.70;;;2.10;96.20;;;;;;5055062;28;20604;-72
2023/03/17 04:54:47;;;;;;;0.65;0.65;;;2.10;98.30;;;;;;5053956;28;20219;-71
2023/03/17 04:57:12;;;;;;;0.70;0.70;;;2.00;96.80;;;;;;5054981;28;20189;-71
2023/03/17 04:59:38;;;;;;;0.60;0.60;;;2.00;97.80;;;;;;5054865;28;20205;-73
2023/03/17 05:02:04;;;;;;;0.80;0.80;;;1.90;97.90;;;;;;5055093;28;20193;-72
2023/03/17 05:04:30;;;;;;;0.60;0.60;;;1.90;97.30;;;;;;5055011;28;20189;-71
2023/03/17 05:06:57;;;;;;;0.80;0.80;;;1.90;97.90;;;;;;5055022;28;20211;-70
2023/03/17 05:09:23;;;;;;;0.60;0.60;;;1.90;97.50;;;;;;5053518;28;20194;-70
2023/03/17 05:11:50;;;;;;;0.70;0.70;;;1.90;97.30;;;;;;5053242;28;20758;-70
2023/03/17 05:14:16;;;;;;;0.70;0.70;;;1.90;98.00;;;;;;5053604;28;20190;-70
2023/03/17 05:16:42;;;;;;;0.60;0.60;;;2.00;98.20;;;;;;5054761;28;20188;-70
2023/03/17 05:19:09;;;;;;;0.70;0.70;;;1.90;97.70;;;;;;5054762;28;20312;-71
2023/03/17 05:21:34;;;;;;;0.73;0.73;;;2.00;97.50;;;;;;5054642;28;20722;-70
2023/03/17 05:24:00;;;;;;;0.70;0.70;;;1.90;97.60;;;;;;5054428;28;20201;-70
2023/03/17 05:26:26;;;;;;;0.60;0.60;;;1.90;98.60;;;;;;5054488;28;20280;-70
2023/03/17 05:28:52;;;;;;;0.70;0.70;;;1.90;98.50;;;;;;5053409;28;20208;-71
2023/03/17 05:31:18;;;;;;;0.70;0.70;;;1.90;99.80;;;;;;5053278;28;20204;-71
2023/03/17 05:33:45;;;;;;;0.70;0.70;;;1.90;98.90;;;;;;5054638;28;20273;-70
2023/03/17 05:36:11;;;;;;;0.60;0.60;;;1.80;99.30;;;;;;5054657;28;20623;-71
2023/03/17 05:38:36;;;;;;;0.65;0.65;;;1.80;99.90;;;;;;5054277;28;20204;-71
2023/03/17 05:41:04;;;;;;;0.60;0.60;;;1.80;99.90;;;;;;5054082;28;20235;-70
2023/03/17 05:43:30;;;;;;;0.57;0.57;;;1.80;99.90;;;;;;5052863;28;20197;-71
2023/03/17 05:45:55;;;;;;;0.65;0.65;;;1.80;99.90;;;;;;5054382;28;20721;-71
2023/03/17 05:48:21;;;;;;;0.73;0.73;;;1.80;99.90;;;;;;5054139;28;20204;-71
2023/03/17 05:50:48;;;;;;;0.57;0.57;;;1.70;99.90;;;;;;5054232;28;20193;-71
2023/03/17 05:53:14;;;;;;;0.80;0.80;;;1.70;99.90;;;;;;5052172;28;20833;-71
2023/03/17 05:55:41;;;;;;;0.70;0.70;;;1.70;99.90;;;;;;5046967;28;20210;-71
2023/03/17 05:58:08;;;;;;;0.60;0.60;;;1.60;99.90;;;;;;5034495;28;20193;-71
2023/03/17 06:00:35;;;;;;;0.70;0.70;;;1.60;99.90;;;;;;5033857;28;20248;-70
2023/03/17 06:03:02;;;;;;;0.60;0.60;;;1.50;99.90;;;;;;5033498;28;20230;-71
2023/03/17 06:05:28;;;;;;;0.60;0.60;;;1.40;99.90;;;;;;5033796;28;20289;-71
2023/03/17 06:07:54;;;;;;;0.60;0.60;;;1.30;99.90;;;;;;5033977;28;20594;-71
2023/03/17 06:10:20;;;;;;;0.70;0.70;;;1.30;99.90;;;;;;5032465;28;20285;-71
2023/03/17 06:12:46;;;;;;;1.00;1.00;;;1.30;99.90;;;;;;5033955;28;20213;-71
2023/03/17 06:15:12;;;;;;;0.57;0.57;;;1.30;99.90;;;;;;5033734;28;20661;-71
2023/03/17 06:17:38;;;;;;;0.70;0.70;;;1.20;99.90;;;;;;5033665;28;20217;-71
2023/03/17 06:20:04;;;;;;;0.60;0.60;;;1.30;99.90;;;;;;5033862;28;20198;-71
2023/03/17 06:22:30;;;;;;;0.70;0.70;;;1.30;99.90;;;;;;5033606;28;20198;-71
2023/03/17 06:24:56;;;;;;;0.70;0.70;;;1.40;99.90;;;;;;5033163;28;20199;-72
2023/03/17 06:27:22;;;;;;;0.70;0.70;;;1.40;99.90;;;;;;5033629;28;20200;-71
2023/03/17 06:29:47;;;;;;;0.60;0.60;;;1.40;99.90;;;;;;5033137;28;20195;-71
2023/03/17 06:32:13;;;;;;;0.60;0.60;;;1.50;99.90;;;;;;5033030;28;20286;-71
2023/03/17 06:34:41;;;;;;;0.63;0.63;;;1.60;99.90;;;;;;5032932;28;20209;-71
2023/03/17 06:37:09;;;;;;;0.77;0.77;;;1.60;99.90;;;;;;5050933;28;20197;-71
2023/03/17 06:39:36;;;;;;;0.70;0.70;;;1.60;99.90;;;;;;5051850;28;20670;-71
2023/03/17 06:42:02;;;;;;;0.80;0.80;;;1.70;99.90;;;;;;5053344;28;20182;-72
2023/03/17 06:44:28;;;;;;;0.65;0.65;;;1.70;99.90;;;;;;5052964;28;20190;-72
2023/03/17 06:46:54;;;;;;;0.70;0.70;;;1.70;99.90;;;;;;5053073;28;20192;-72
2023/03/17 06:49:20;;;;;;;0.60;0.60;;;1.70;99.90;;;;;;5053140;28;20189;-72
2023/03/17 06:51:46;;;;;;;0.70;0.70;;;1.80;99.90;;;;;;5053224;28;20250;-71
2023/03/17 06:54:11;;;;;;;0.65;0.65;;;1.70;99.90;;;;;;5053037;28;20303;-71
2023/03/17 06:56:37;;;;;;;0.70;0.70;;;1.80;99.90;;;;;;5052787;28;20209;-71
2023/03/17 06:59:03;;;;;;;0.60;0.60;;;1.80;99.90;;;;;;5051669;28;20197;-72
2023/03/17 07:01:29;;;;;;;0.55;0.55;;;1.80;99.90;;;;;;5052776;28;20280;-71
2023/03/17 07:03:55;;;;;;;0.70;0.70;;;1.80;99.90;;;;;;5052267;28;20708;-71
2023/03/17 07:06:24;;;;;;;0.75;0.75;;;1.80;99.90;;;;;;5053118;28;20726;-72
2023/03/17 07:08:51;;;;;;;0.70;0.70;;;1.80;99.90;;;;;;5052658;28;20595;-71
2023/03/17 07:11:16;;;;;;;0.70;0.70;;;1.80;99.90;;;;;;5052553;28;20656;-71
2023/03/17 07:13:43;;;;;;;0.60;0.60;;;1.80;99.90;;;;;;5052052;28;20189;-72
2023/03/17 07:16:15;;;;;;;1.38;1.20;;;1.80;99.90;;;;;;5053074;28;20296;-72
2023/03/17 07:18:42;;;;;;;0.70;0.70;;;1.80;99.90;;;;;;5051386;28;20672;-71
2023/03/17 07:21:08;;;;;;;0.70;0.70;;;1.80;99.90;;;;;;5052647;28;20186;-72
2023/03/17 07:23:34;;;;;;;0.60;0.60;;;1.70;99.90;;;;;;5052399;28;20225;-72
2023/03/17 07:26:00;;;;;;;0.70;0.70;;;1.80;99.90;;;;;;5051294;28;20718;-72
2023/03/17 07:28:26;;;;;;;0.70;0.70;;;1.80;99.90;;;;;;5052622;28;20193;-72
2023/03/17 07:30:51;;;;;;;0.60;0.60;;;1.80;99.90;;;;;;5052869;28;20204;-72
2023/03/17 07:33:21;;;;;;;0.60;0.60;;;1.90;99.90;;;;;;5050765;28;20209;-72
2023/03/17 07:35:48;;;;;;;0.80;0.80;;;1.90;99.90;;;;;;5052632;28;20209;-72
2023/03/17 07:38:15;;;;;;;0.50;0.50;;;1.90;99.90;;;;;;5053807;28;20194;-72
2023/03/17 07:40:42;;;;;;;0.60;0.60;;;1.90;99.90;;;;;;5056522;28;20198;-72
2023/03/17 07:43:08;;;;;;;0.70;0.70;;;1.90;99.90;;;;;;5056612;28;20194;-72
2023/03/17 07:45:34;;;;;;;0.60;0.60;;;1.90;99.90;;;;;;5056436;28;20247;-72
2023/03/17 07:48:04;;;;;;;0.80;0.80;;;1.90;99.90;;;;;;5056419;28;20182;-72
2023/03/17 07:50:31;;;;;;;0.70;0.70;;;1.90;99.90;;;;;;5056150;28;20280;-72
2023/03/17 07:52:57;;;;;;;0.73;0.73;;;1.90;99.90;;;;;;5056375;28;20721;-72
2023/03/17 07:55:23;;;;;;;0.70;0.70;;;1.90;99.90;;;;;;5055433;28;20193;-72
2023/03/17 07:57:49;;;;;;;0.70;0.70;;;1.90;99.90;;;;;;5056194;28;20239;-72
2023/03/17 08:00:16;;;;;;;0.60;0.60;;;1.90;99.90;;;;;;5056220;28;20583;-72
2023/03/17 08:02:42;;;;;;;0.60;0.60;;;1.90;99.90;;;;;;5055382;28;20279;-72
2023/03/17 08:05:08;;;;;;;0.50;0.50;;;1.90;99.90;;;;;;5056181;28;20207;-72
2023/03/17 08:07:36;;;;;;;0.85;0.85;;;1.90;99.90;;;;;;5055947;28;20201;-72
2023/03/17 08:10:04;;;;;;;0.60;0.60;;;1.90;99.90;;;;;;5056119;28;20201;-73
2023/03/17 08:12:29;;;;;;;0.60;0.60;;;1.90;99.90;;;;;;5054521;28;20205;-72
2023/03/17 08:14:55;;;;;;;0.60;0.60;;;1.90;99.90;;;;;;5055874;28;20562;-72
2023/03/17 08:17:25;;;;;;;0.68;0.68;;;1.90;99.90;;;;;;5055771;28;20666;-73
2023/03/17 08:19:52;;;;;;;0.60;0.60;;;2.00;99.90;;;;;;5055860;28;20194;-72
2023/03/17 08:22:18;;;;;;;0.52;0.52;;;2.00;99.90;;;;;;5055937;28;20554;-73
2023/03/17 08:24:44;;;;;;;0.50;0.50;;;2.10;99.90;;;;;;5040767;28;20273;-72
2023/03/17 08:27:09;;;;;;;0.75;0.75;;;2.10;99.90;;;;;;5018002;28;20266;-72
2023/03/17 08:29:35;;;;;;;0.63;0.63;;;2.10;99.90;;;;;;5051742;28;20201;-72
2023/03/17 08:32:02;;;;;;;0.50;0.50;;;2.10;99.90;;;;;;5055706;28;20197;-72
2023/03/17 08:34:28;;;;;;;0.70;0.70;;;2.10;99.90;;;;;;5055020;28;20201;-73
2023/03/17 08:36:53;;;;;;;0.70;0.70;;;2.10;99.90;;;;;;5054902;28;20189;-72
2023/03/17 08:39:19;;;;;;;0.63;0.63;;;2.20;99.90;;;;;;5054955;28;20277;-72
2023/03/17 08:41:45;;;;;;;1.63;1.35;;;2.20;99.90;;;;;;5055495;28;20537;-72
2023/03/17 08:44:13;;;;;;;0.60;0.60;;;2.30;99.90;;;;;;5055444;28;20200;-72
2023/03/17 08:46:40;;;;;;;0.65;0.65;;;2.30;99.90;;;;;;5055532;28;20227;-72
2023/03/17 08:49:06;;;;;;;0.65;0.65;;;2.30;99.90;;;;;;5055017;28;20228;-72
2023/03/17 08:51:35;;;;;;;0.60;0.60;;;2.40;99.90;;;;;;5054863;28;20221;-73
2023/03/17 08:54:02;;;;;;;0.70;0.70;;;2.50;99.90;;;;;;5053985;28;20695;-72
2023/03/17 08:56:28;;;;;;;0.57;0.57;;;2.60;99.90;;;;;;5054858;28;20288;-73
2023/03/17 08:58:54;;;;;;;0.75;0.75;;;2.80;99.90;;;;;;5053693;28;20285;-72
2023/03/17 09:01:20;;;;;;;0.60;0.60;;;2.80;99.90;;;;;;5054865;28;20189;-72
2023/03/17 09:03:46;;;;;;;0.70;0.70;;;2.70;99.90;;;;;;5054498;28;20245;-73
2023/03/17 09:06:13;;;;;;;0.70;0.70;;;2.60;99.90;;;;;;5055123;28;20204;-73
2023/03/17 09:08:43;;;;;;;0.70;0.70;;;2.50;99.90;;;;;;5054788;28;20208;-73
2023/03/17 09:11:20;;;;;;;0.77;0.77;;;2.50;99.90;;;;;;5054994;28;20189;-73
2023/03/17 09:13:47;;;;;;;0.60;0.60;;;2.40;99.90;;;;;;5055409;28;20209;-73
2023/03/17 09:16:14;;;;;;;0.60;0.60;;;2.50;99.90;;;;;;5054869;28;20244;-73
2023/03/17 09:18:41;;;;;;;0.60;0.60;;;2.60;99.90;;;;;;5054463;28;20198;-72
2023/03/17 09:21:08;;;;;;;0.98;0.93;;;2.60;99.90;;;;;;5054116;28;20198;-73
2023/03/17 09:23:34;;;;;;;0.70;0.70;;;2.50;99.90;;;;;;5049355;28;20823;-73
2023/03/17 09:26:01;;;;;;;0.68;0.68;;;2.40;99.90;;;;;;5053710;28;20292;-72
2023/03/17 09:28:27;;;;;;;0.50;0.50;;;2.40;99.90;;;;;;5054500;28;20193;-73
2023/03/17 09:30:58;;;;;;;0.68;0.68;;;2.40;99.90;;;;;;5054603;28;20276;-72
2023/03/17 09:33:24;;;;;;;0.60;0.60;;;2.40;99.90;;;;;;5054531;28;20663;-73
2023/03/17 09:35:55;;;;;;;0.60;0.60;;;2.50;99.90;;;;;;5053026;28;20356;-73
2023/03/17 09:38:26;;;;;;;0.80;0.80;;;2.50;99.90;;;;;;5054264;28;20190;-73
2023/03/17 09:41:15;;;;;;;0.70;0.70;;;2.50;99.90;;;;;;5054326;28;20189;-72
2023/03/17 09:43:53;;;;;;;0.60;0.60;;;2.50;99.90;;;;;;5047808;28;20205;-73
2023/03/17 09:46:38;;;;;;;0.60;0.60;;;2.50;99.90;;;;;;5054159;28;20197;-73
2023/03/17 09:49:19;;;;;;;0.80;0.80;;;2.60;99.90;;;;;;5054165;28;20221;-74
2023/03/17 09:51:45;;;;;;;0.70;0.70;;;2.50;99.90;;;;;;5052704;28;20286;-74
2023/03/17 09:54:20;;;;;;;0.60;0.60;;;2.50;99.90;;;;;;5054163;28;20232;-74
2023/03/17 09:56:50;;;;;;;0.57;0.57;;;2.50;99.90;;;;;;5054107;28;20204;-74
2023/03/17 09:59:49;;;;;;;0.57;0.57;;;2.50;99.90;;;;;;5053881;28;20193;-74
2023/03/17 10:02:23;;;;;;;0.80;0.80;;;2.50;99.90;;;;;;5031210;28;20229;-74
2023/03/17 10:04:49;;;;;;;0.77;0.77;;;2.50;99.90;;;;;;5052613;28;20565;-74
2023/03/17 10:07:23;;;;;;;0.68;0.68;;;2.50;99.90;;;;;;5053812;28;20201;-74
2023/03/17 10:10:02;;;;;;;0.63;0.63;;;2.60;99.90;;;;;;5052510;28;20208;-74
2023/03/17 10:12:52;;;;;;;0.63;0.63;;;2.60;99.90;;;;;;5053809;28;20626;-73
2023/03/17 10:16:04;;;;;;;0.60;0.60;;;2.60;99.90;;;;;;5053703;28;20687;-73
2023/03/17 10:18:39;;;;;;;0.50;0.50;;;2.50;99.90;;;;;;5011301;28;20202;-73
2023/03/17 10:21:09;;;;;;;0.68;0.68;;;2.50;99.90;;;;;;4995076;28;20248;-73
2023/03/17 10:23:35;;;;;;;0.50;0.50;;;2.50;99.90;;;;;;5010634;28;20333;-73
2023/03/17 10:26:12;;;;;;;0.70;0.70;;;2.50;99.90;;;;;;5011841;28;20721;-74
2023/03/17 10:28:39;;;;;;;0.70;0.70;;;2.30;99.90;;;;;;5011356;28;21654;-73
2023/03/17 10:31:16;;;;;;;0.68;0.68;;;2.30;99.90;;;;;;4995392;28;20393;-73
2023/03/17 10:33:45;;;;;;;0.70;0.70;;;2.30;99.90;;;;;;5011362;28;20229;-73
2023/03/17 10:36:15;;;;;;;0.80;0.80;;;2.10;99.90;;;;;;5011635;28;20229;-74
2023/03/17 10:38:51;;;;;;;0.80;0.80;;;2.00;99.90;;;;;;5011630;28;20214;-74
2023/03/17 10:41:16;;;;;;;0.70;0.70;;;2.10;99.90;;;;;;5012104;28;20226;-75
2023/03/17 10:43:49;;;;;;;0.80;0.80;;;2.00;99.90;;;;;;5011547;28;20730;-74
2023/03/17 10:46:24;;;;;;;0.90;0.90;;;2.00;99.90;;;;;;5011891;28;20268;-74
2023/03/17 10:48:57;;;;;;;0.70;0.70;;;2.00;99.90;;;;;;5018967;28;20253;-73
2023/03/17 10:51:35;;;;;;;0.70;0.70;;;2.00;99.90;;;;;;5033553;28;20209;-72
2023/03/17 10:54:10;;;;;;;0.50;0.50;;;1.90;99.90;;;;;;5033385;28;20684;-74
2023/03/17 10:56:41;;;;;;;0.60;0.60;;;1.90;99.90;;;;;;5033168;28;20197;-73
2023/03/17 10:59:16;;;;;;;0.50;0.50;;;1.80;99.90;;;;;;5032920;28;20197;-73
2023/03/17 11:02:17;;;;;;;0.60;0.60;;;1.70;99.90;;;;;;5032989;28;20287;-74
2023/03/17 11:04:43;;;;;;;0.60;0.60;;;1.60;99.90;;;;;;5025840;28;20222;-74
2023/03/17 11:07:16;;;;;;;0.57;0.57;;;1.70;99.90;;;;;;5032936;28;20213;-73
2023/03/17 11:09:42;;;;;;;0.68;0.68;;;1.60;99.90;;;;;;5032770;28;20562;-73
2023/03/17 11:12:17;;;;;;;0.50;0.50;;;1.60;99.90;;;;;;5032108;28;20562;-73
2023/03/17 11:14:43;;;;;;;0.60;0.60;;;1.60;99.90;;;;;;5032744;28;20263;-72
2023/03/17 11:17:23;;;;;;;0.68;0.68;;;1.60;99.90;;;;;;5040675;28;20669;-73
2023/03/17 11:20:04;;;;;;;0.70;0.70;;;1.60;99.90;;;;;;5052804;28;20213;-73
2023/03/17 11:22:37;;;;;;;0.90;0.90;;;1.50;99.90;;;;;;5052773;28;20212;-72
2023/03/17 11:25:03;;;;;;;0.50;0.50;;;1.50;99.90;;;;;;5050912;28;20197;-72
2023/03/17 11:27:34;;;;;;;0.70;0.70;;;1.40;99.90;;;;;;5052544;28;20556;-72
2023/03/17 11:30:09;;;;;;;0.70;0.70;;;1.20;99.90;;;;;;5032700;28;20198;-72
2023/03/17 11:32:38;;;;;;;0.52;0.52;;;1.20;99.90;;;;;;5032545;28;20224;-72
2023/03/17 11:35:35;;;;;;;0.70;0.70;;;1.20;99.90;;;;;;5032469;28;20194;-71
2023/03/17 11:38:20;;;;;;;0.60;0.60;;;1.10;99.90;;;;;;5031380;28;20696;-72
2023/03/17 11:41:10;;;;;;;0.77;0.77;;;1.10;99.90;;;;;;5040117;28;20190;-72
2023/03/17 11:44:17;;;;;;;0.70;0.70;;;1.20;99.90;;;;;;5052388;28;20272;-73
2023/03/17 11:47:03;;;;;;;0.60;0.60;;;1.20;99.90;;;;;;5018734;28;20201;-73
2023/03/17 11:50:10;;;;;;;0.80;0.80;;;1.30;99.90;;;;;;5037270;28;20233;-73
2023/03/17 11:52:58;;;;;;;0.80;0.80;;;1.30;99.90;;;;;;5052269;28;20636;-74
2023/03/17 11:55:42;;;;;;;0.70;0.70;;;1.30;99.90;;;;;;5052090;28;20209;-73
2023/03/17 11:58:34;;;;;;;0.70;0.70;;;1.20;99.90;;;;;;5052259;28;20189;-73
2023/03/17 12:01:01;;;;;;;0.63;0.63;;;1.20;99.90;;;;;;5052261;28;20235;-73
2023/03/17 12:03:30;;;;;;;0.60;0.60;;;1.20;99.90;;;;;;5051829;28;20217;-73
2023/03/17 12:06:04;;;;;;;1.05;1.05;;;1.20;99.90;;;;;;5052430;28;20197;-73
2023/03/17 12:08:47;;;;;;;1.13;0.95;;;1.10;99.90;;;;;;5052134;28;20193;-73
2023/03/17 12:11:23;;;;;;;0.50;0.50;;;1.10;99.90;;;;;;5052232;28;20193;-72
2023/03/17 12:13:58;;;;;;;0.63;0.63;;;1.00;99.90;;;;;;5050689;28;20220;-73
2023/03/17 12:16:37;;;;;;;0.70;0.70;;;1.00;99.90;;;;;;5052011;28;20262;-73
2023/03/17 12:19:18;;;;;;;0.70;0.70;;;1.00;99.90;;;;;;5052098;28;20193;-73
2023/03/17 12:22:04;;;;;;;0.60;0.60;;;1.10;99.90;;;;;;5052294;28;20197;-72
2023/03/17 12:24:55;;;;;;;0.60;0.60;;;1.20;99.90;;;;;;5052848;28;20203;-72
2023/03/17 12:27:27;;;;;;;0.70;0.70;;;1.20;99.90;;;;;;5047800;28;20668;-72
2023/03/17 12:30:21;;;;;;;0.60;0.60;;;1.20;99.90;;;;;;5054513;28;20255;-72
2023/03/17 12:32:57;;;;;;;0.60;0.60;;;1.20;99.90;;;;;;5051548;28;20227;-71
2023/03/17 12:35:25;;;;;;;0.70;0.70;;;1.20;99.90;;;;;;5055685;28;20731;-71
2023/03/17 12:37:52;;;;;;;0.60;0.60;;;1.30;99.90;;;;;;5055259;28;20312;-71
2023/03/17 12:40:30;;;;;;;1.10;1.00;;;1.30;99.90;;;;;;5055459;28;20197;-71
2023/03/17 12:43:15;;;;;;;0.60;0.60;;;1.20;99.90;;;;;;5055541;28;20273;-71
2023/03/17 12:45:54;;;;;;;0.70;0.70;;;1.20;99.90;;;;;;5054162;28;20197;-71
2023/03/17 12:48:23;;;;;;;1.25;1.15;;;1.10;99.90;;;;;;5055139;28;20189;-71
2023/03/17 12:51:07;;;;;;;0.60;0.60;;;1.00;99.90;;;;;;5053961;28;20379;-71
2023/03/17 12:53:37;;;;;;;0.60;0.60;;;1.00;99.90;;;;;;5055046;28;20564;-71
2023/03/17 12:56:23;;;;;;;0.60;0.60;;;1.00;99.90;;;;;;5055044;28;20217;-71
2023/03/17 12:58:51;;;;;;;0.70;0.70;;;0.90;99.90;;;;;;5054972;28;20671;-71
2023/03/17 13:01:25;;;;;;;0.60;0.60;;;0.90;99.90;;;;;;5055223;28;20202;-71
2023/03/17 13:04:25;;;;;;;0.55;0.55;;;0.90;99.90;;;;;;5054807;28;20229;-72
2023/03/17 13:07:03;;;;;;;0.60;0.60;;;0.90;99.90;;;;;;5055276;28;20208;-71
2023/03/17 13:09:35;;;;;;;0.50;0.50;;;0.90;99.90;;;;;;5054376;28;20598;-71
2023/03/17 13:12:03;;;;;;;0.85;0.80;;;0.90;99.90;;;;;;5054904;28;20189;-71
2023/03/17 13:14:43;;;;;;;0.60;0.60;;;1.00;99.90;;;;;;5054860;28;20203;-71